sensor_id;sensor_type;location;lat;lon;timestamp;pressure;altitude;pressure_sealevel;temperature;humidity
78149;BME280;67396;42.664;23.382;2023-09-18T00:01:49;95468.97;;;17.69;76.77
78149;BME280;67396;42.664;23.382;2023-09-18T00:04:15;95467.84;;;17.66;76.53
78149;BME280;67396;42.664;23.382;2023-09-18T00:06:40;95467.84;;;17.66;76.64
78149;BME280;67396;42.664;23.382;2023-09-18T00:09:06;95468.97;;;17.69;76.24
78149;BME280;67396;42.664;23.382;2023-09-18T00:11:36;95462.66;;;17.68;76.39
78149;BME280;67396;42.664;23.382;2023-09-18T00:14:03;95464.22;;;17.70;76.38
78149;BME280;67396;42.664;23.382;2023-09-18T00:16:29;95461.09;;;17.67;76.45
78149;BME280;67396;42.664;23.382;2023-09-18T00:18:54;95451.59;;;17.65;76.52
78149;BME280;67396;42.664;23.382;2023-09-18T00:21:19;95462.66;;;17.68;76.06
78149;BME280;67396;42.664;23.382;2023-09-18T00:23:45;95460.81;;;17.58;76.24
78149;BME280;67396;42.664;23.382;2023-09-18T00:26:11;95453.34;;;17.52;76.57
78149;BME280;67396;42.664;23.382;2023-09-18T00:28:37;95454.91;;;17.53;76.67
78149;BME280;67396;42.664;23.382;2023-09-18T00:31:02;95461.66;;;17.52;76.26
78149;BME280;67396;42.664;23.382;2023-09-18T00:33:27;95454.88;;;17.56;76.17
78149;BME280;67396;42.664;23.382;2023-09-18T00:35:53;95464.31;;;17.62;75.76
78149;BME280;67396;42.664;23.382;2023-09-18T00:38:19;95463.13;;;17.60;75.72
78149;BME280;67396;42.664;23.382;2023-09-18T00:40:44;95461.94;;;17.64;74.87
78149;BME280;67396;42.664;23.382;2023-09-18T00:43:10;95469.88;;;17.62;75.11
78149;BME280;67396;42.664;23.382;2023-09-18T00:45:42;95470.75;;;17.56;74.78
78149;BME280;67396;42.664;23.382;2023-09-18T00:48:09;95466.00;;;17.53;74.91
78149;BME280;67396;42.664;23.382;2023-09-18T00:50:35;95460.41;;;17.56;74.94
78149;BME280;67396;42.664;23.382;2023-09-18T00:53:01;95466.75;;;17.57;74.85
78149;BME280;67396;42.664;23.382;2023-09-18T00:55:28;95469.94;;;17.55;74.72
78149;BME280;67396;42.664;23.382;2023-09-18T00:57:56;95472.34;;;17.53;74.70
78149;BME280;67396;42.664;23.382;2023-09-18T01:00:22;95469.16;;;17.55;74.51
78149;BME280;67396;42.664;23.382;2023-09-18T01:02:48;95475.81;;;17.61;74.13
78149;BME280;67396;42.664;23.382;2023-09-18T01:05:14;95470.66;;;17.59;74.01
78149;BME280;67396;42.664;23.382;2023-09-18T01:07:42;95486.19;;;17.57;74.43
78149;BME280;67396;42.664;23.382;2023-09-18T01:10:08;95485.03;;;17.54;74.50
78149;BME280;67396;42.664;23.382;2023-09-18T01:12:48;95481.88;;;17.52;74.08
78149;BME280;67396;42.664;23.382;2023-09-18T01:15:22;95492.19;;;17.52;73.80
78149;BME280;67396;42.664;23.382;2023-09-18T01:17:50;95489.91;;;17.47;74.13
78149;BME280;67396;42.664;23.382;2023-09-18T01:20:16;95477.63;;;17.44;74.25
78149;BME280;67396;42.664;23.382;2023-09-18T01:22:41;95475.31;;;17.39;74.34
78149;BME280;67396;42.664;23.382;2023-09-18T01:25:08;95477.34;;;17.35;74.46
78149;BME280;67396;42.664;23.382;2023-09-18T01:27:34;95471.78;;;17.35;74.29
78149;BME280;67396;42.664;23.382;2023-09-18T01:29:59;95474.66;;;17.28;74.74
78149;BME280;67396;42.664;23.382;2023-09-18T01:32:27;95475.88;;;17.27;74.95
78149;BME280;67396;42.664;23.382;2023-09-18T01:34:56;95471.94;;;17.24;75.14
78149;BME280;67396;42.664;23.382;2023-09-18T01:37:24;95475.84;;;17.30;74.87
78149;BME280;67396;42.664;23.382;2023-09-18T01:39:51;95473.06;;;17.30;75.30
78149;BME280;67396;42.664;23.382;2023-09-18T01:42:17;95470.66;;;17.33;75.03
78149;BME280;67396;42.664;23.382;2023-09-18T01:44:44;95475.69;;;17.41;74.84
78149;BME280;67396;42.664;23.382;2023-09-18T01:47:16;95474.81;;;17.48;74.14
78149;BME280;67396;42.664;23.382;2023-09-18T01:49:43;95469.94;;;17.55;73.83
78149;BME280;67396;42.664;23.382;2023-09-18T01:52:09;95477.09;;;17.56;74.67
78149;BME280;67396;42.664;23.382;2023-09-18T01:54:35;95469.09;;;17.62;73.90
78149;BME280;67396;42.664;23.382;2023-09-18T01:57:01;95466.69;;;17.60;73.88
78149;BME280;67396;42.664;23.382;2023-09-18T01:59:27;95471.44;;;17.63;73.82
78149;BME280;67396;42.664;23.382;2023-09-18T02:01:53;95474.59;;;17.65;73.24
78149;BME280;67396;42.664;23.382;2023-09-18T02:04:19;95485.66;;;17.69;73.36
78149;BME280;67396;42.664;23.382;2023-09-18T02:06:46;95480.94;;;17.66;73.39
78149;BME280;67396;42.664;23.382;2023-09-18T02:09:12;95481.38;;;17.61;73.43
78149;BME280;67396;42.664;23.382;2023-09-18T02:11:39;95481.28;;;17.68;73.30
78149;BME280;67396;42.664;23.382;2023-09-18T02:14:05;95484.84;;;17.68;73.09
78149;BME280;67396;42.664;23.382;2023-09-18T02:16:35;95490.59;;;17.54;73.40
78149;BME280;67396;42.664;23.382;2023-09-18T02:19:01;95492.97;;;17.52;73.63
78149;BME280;67396;42.664;23.382;2023-09-18T02:21:27;95487.44;;;17.52;73.81
78149;BME280;67396;42.664;23.382;2023-09-18T02:23:54;95479.44;;;17.58;73.37
78149;BME280;67396;42.664;23.382;2023-09-18T02:26:21;95493.47;;;17.47;73.74
78149;BME280;67396;42.664;23.382;2023-09-18T02:28:47;95490.63;;;17.51;73.28
78149;BME280;67396;42.664;23.382;2023-09-18T02:31:12;95496.16;;;17.51;73.41
78149;BME280;67396;42.664;23.382;2023-09-18T02:33:38;95490.63;;;17.51;73.50
78149;BME280;67396;42.664;23.382;2023-09-18T02:36:04;95493.91;;;17.42;73.50
78149;BME280;67396;42.664;23.382;2023-09-18T02:38:30;95485.25;;;17.37;73.83
78149;BME280;67396;42.664;23.382;2023-09-18T02:40:55;95494.00;;;17.35;73.62
78149;BME280;67396;42.664;23.382;2023-09-18T02:43:22;95489.41;;;17.21;74.31
78149;BME280;67396;42.664;23.382;2023-09-18T02:45:48;95490.56;;;17.24;74.31
78149;BME280;67396;42.664;23.382;2023-09-18T02:48:13;95486.00;;;17.07;74.72
78149;BME280;67396;42.664;23.382;2023-09-18T02:50:39;95486.84;;;17.04;74.82
78149;BME280;67396;42.664;23.382;2023-09-18T02:53:06;95486.97;;;16.93;75.26
78149;BME280;67396;42.664;23.382;2023-09-18T02:55:31;95479.13;;;16.84;75.67
78149;BME280;67396;42.664;23.382;2023-09-18T02:57:57;95488.94;;;16.92;75.52
78149;BME280;67396;42.664;23.382;2023-09-18T03:00:22;95488.56;;;16.90;75.64
78149;BME280;67396;42.664;23.382;2023-09-18T03:02:47;95486.94;;;16.97;75.44
78149;BME280;67396;42.664;23.382;2023-09-18T03:05:13;95493.63;;;16.99;75.27
78149;BME280;67396;42.664;23.382;2023-09-18T03:07:38;95492.84;;;16.99;75.18
78149;BME280;67396;42.664;23.382;2023-09-18T03:10:05;95491.81;;;16.82;75.99
78149;BME280;67396;42.664;23.382;2023-09-18T03:12:31;95491.44;;;16.83;76.08
78149;BME280;67396;42.664;23.382;2023-09-18T03:14:57;95497.06;;;16.76;76.16
78149;BME280;67396;42.664;23.382;2023-09-18T03:17:22;95488.28;;;16.81;75.67
78149;BME280;67396;42.664;23.382;2023-09-18T03:19:48;95487.84;;;16.86;75.64
78149;BME280;67396;42.664;23.382;2023-09-18T03:22:17;95480.72;;;16.85;75.76
78149;BME280;67396;42.664;23.382;2023-09-18T03:27:10;95491.44;;;16.83;75.80
78149;BME280;67396;42.664;23.382;2023-09-18T03:29:39;95480.31;;;16.87;75.79
78149;BME280;67396;42.664;23.382;2023-09-18T03:32:08;95481.50;;;16.86;75.55
78149;BME280;67396;42.664;23.382;2023-09-18T03:34:38;95473.22;;;16.82;76.16
78149;BME280;67396;42.664;23.382;2023-09-18T03:37:08;95466.09;;;16.81;76.12
78149;BME280;67396;42.664;23.382;2023-09-18T03:39:41;95477.84;;;16.92;75.71
78149;BME280;67396;42.664;23.382;2023-09-18T03:42:06;95478.72;;;16.86;75.76
78149;BME280;67396;42.664;23.382;2023-09-18T03:44:38;95472.41;;;16.85;75.87
78149;BME280;67396;42.664;23.382;2023-09-18T03:47:07;95470.84;;;16.81;75.93
78149;BME280;67396;42.664;23.382;2023-09-18T03:49:33;95477.31;;;16.71;76.24
78149;BME280;67396;42.664;23.382;2023-09-18T03:51:58;95469.72;;;16.78;76.03
78149;BME280;67396;42.664;23.382;2023-09-18T03:54:24;95475.69;;;16.73;76.36
78149;BME280;67396;42.664;23.382;2023-09-18T03:56:49;95464.56;;;16.77;76.19
78149;BME280;67396;42.664;23.382;2023-09-18T03:59:15;95470.50;;;16.75;76.03
78149;BME280;67396;42.664;23.382;2023-09-18T04:01:41;95466.97;;;16.71;76.56
78149;BME280;67396;42.664;23.382;2023-09-18T04:04:06;95472.63;;;16.61;76.85
78149;BME280;67396;42.664;23.382;2023-09-18T04:06:51;95472.59;;;16.64;76.73
78149;BME280;67396;42.664;23.382;2023-09-18T04:09:16;95473.41;;;16.65;76.76
78149;BME280;67396;42.664;23.382;2023-09-18T04:11:43;95467.56;;;16.52;77.16
78149;BME280;67396;42.664;23.382;2023-09-18T04:14:08;95483.03;;;16.46;77.67
78149;BME280;67396;42.664;23.382;2023-09-18T04:16:34;95466.09;;;16.40;77.68
78149;BME280;67396;42.664;23.382;2023-09-18T04:19:03;95477.16;;;16.40;77.42
78149;BME280;67396;42.664;23.382;2023-09-18T04:21:29;95481.84;;;16.47;77.53
78149;BME280;67396;42.664;23.382;2023-09-18T04:24:01;95474.78;;;16.39;77.85
78149;BME280;67396;42.664;23.382;2023-09-18T04:26:27;95478.34;;;16.43;77.44
78149;BME280;67396;42.664;23.382;2023-09-18T04:28:53;95475.19;;;16.41;77.56
78149;BME280;67396;42.664;23.382;2023-09-18T04:31:18;95482.31;;;16.42;77.77
78149;BME280;67396;42.664;23.382;2023-09-18T04:33:44;95484.63;;;16.47;77.67
78149;BME280;67396;42.664;23.382;2023-09-18T04:36:10;95479.94;;;16.37;77.91
78149;BME280;67396;42.664;23.382;2023-09-18T04:38:36;95480.66;;;16.48;77.38
78149;BME280;67396;42.664;23.382;2023-09-18T04:41:01;95469.16;;;16.49;77.24
78149;BME280;67396;42.664;23.382;2023-09-18T04:43:35;95482.13;;;16.60;76.66
78149;BME280;67396;42.664;23.382;2023-09-18T04:48:28;95476.75;;;16.86;75.46
78149;BME280;67396;42.664;23.382;2023-09-18T04:50:55;95483.69;;;17.02;75.02
78149;BME280;67396;42.664;23.382;2023-09-18T04:53:23;95484.75;;;17.15;74.75
78149;BME280;67396;42.664;23.382;2023-09-18T04:55:48;95479.75;;;17.33;73.88
78149;BME280;67396;42.664;23.382;2023-09-18T04:58:17;95474.84;;;17.44;72.89
78149;BME280;67396;42.664;23.382;2023-09-18T05:00:45;95480.31;;;17.51;72.53
78149;BME280;67396;42.664;23.382;2023-09-18T05:03:14;95471.44;;;17.63;72.00
78149;BME280;67396;42.664;23.382;2023-09-18T05:05:40;95476.28;;;17.56;72.37
78149;BME280;67396;42.664;23.382;2023-09-18T05:10:31;95473.81;;;17.65;72.01
78149;BME280;67396;42.664;23.382;2023-09-18T05:13:00;95472.19;;;17.67;71.73
78149;BME280;67396;42.664;23.382;2023-09-18T05:15:29;95473.94;;;17.85;71.36
78149;BME280;67396;42.664;23.382;2023-09-18T05:17:56;95479.63;;;18.01;70.37
78149;BME280;67396;42.664;23.382;2023-09-18T05:20:24;95493.78;;;18.10;70.06
78149;BME280;67396;42.664;23.382;2023-09-18T05:22:54;95491.09;;;18.03;70.45
78149;BME280;67396;42.664;23.382;2023-09-18T05:25:24;95486.44;;;17.96;70.99
78149;BME280;67396;42.664;23.382;2023-09-18T05:27:54;95484.72;;;18.06;70.59
78149;BME280;67396;42.664;23.382;2023-09-18T05:30:27;95493.41;;;18.08;70.34
78149;BME280;67396;42.664;23.382;2023-09-18T05:32:57;95495.97;;;18.22;69.75
78149;BME280;67396;42.664;23.382;2023-09-18T05:35:29;95494.22;;;18.32;69.23
78149;BME280;67396;42.664;23.382;2023-09-18T05:37:54;95491.97;;;18.23;69.96
78149;BME280;67396;42.664;23.382;2023-09-18T05:40:22;95475.00;;;18.41;69.31
78149;BME280;67396;42.664;23.382;2023-09-18T05:42:48;95488.19;;;18.64;68.89
78149;BME280;67396;42.664;23.382;2023-09-18T05:45:14;95488.97;;;18.84;67.89
78149;BME280;67396;42.664;23.382;2023-09-18T05:47:40;95492.06;;;18.90;67.34
78149;BME280;67396;42.664;23.382;2023-09-18T05:50:07;95498.44;;;18.90;67.51
78149;BME280;67396;42.664;23.382;2023-09-18T05:52:34;95497.81;;;18.79;67.95
78149;BME280;67396;42.664;23.382;2023-09-18T05:55:02;95497.41;;;19.00;67.18
78149;BME280;67396;42.664;23.382;2023-09-18T05:57:28;95503.22;;;19.09;66.79
78149;BME280;67396;42.664;23.382;2023-09-18T05:59:56;95495.41;;;19.01;67.59
78149;BME280;67396;42.664;23.382;2023-09-18T06:02:23;95499.44;;;19.20;66.72
78149;BME280;67396;42.664;23.382;2023-09-18T06:04:49;95500.22;;;19.40;65.44
78149;BME280;67396;42.664;23.382;2023-09-18T06:07:14;95502.41;;;19.52;64.56
78149;BME280;67396;42.664;23.382;2023-09-18T06:09:40;95493.69;;;19.50;64.53
78149;BME280;67396;42.664;23.382;2023-09-18T06:12:06;95499.13;;;19.57;64.34
78149;BME280;67396;42.664;23.382;2023-09-18T06:14:32;95499.25;;;19.50;64.76
78149;BME280;67396;42.664;23.382;2023-09-18T06:17:00;95495.81;;;19.62;64.83
78149;BME280;67396;42.664;23.382;2023-09-18T06:19:29;95501.38;;;19.62;63.74
78149;BME280;67396;42.664;23.382;2023-09-18T06:21:55;95499.25;;;19.70;64.20
78149;BME280;67396;42.664;23.382;2023-09-18T06:24:21;95502.66;;;19.77;63.38
78149;BME280;67396;42.664;23.382;2023-09-18T06:26:46;95491.59;;;19.74;63.40
78149;BME280;67396;42.664;23.382;2023-09-18T06:29:12;95498.88;;;20.04;62.32
78149;BME280;67396;42.664;23.382;2023-09-18T06:31:41;95498.47;;;20.21;61.95
78149;BME280;67396;42.664;23.382;2023-09-18T06:34:07;95497.38;;;20.51;60.85
78149;BME280;67396;42.664;23.382;2023-09-18T06:36:36;95499.22;;;20.74;60.59
78149;BME280;67396;42.664;23.382;2023-09-18T06:39:02;95512.56;;;21.12;58.74
78149;BME280;67396;42.664;23.382;2023-09-18T06:41:32;95501.56;;;21.21;58.13
78149;BME280;67396;42.664;23.382;2023-09-18T06:43:57;95509.03;;;20.79;59.30
78149;BME280;67396;42.664;23.382;2023-09-18T06:46:23;95503.47;;;20.79;59.19
78149;BME280;67396;42.664;23.382;2023-09-18T06:48:48;95512.25;;;20.77;59.80
78149;BME280;67396;42.664;23.382;2023-09-18T06:51:16;95511.47;;;20.77;59.59
78149;BME280;67396;42.664;23.382;2023-09-18T06:53:43;95506.00;;;20.73;59.41
78149;BME280;67396;42.664;23.382;2023-09-18T06:56:08;95505.94;;;21.06;58.95
78149;BME280;67396;42.664;23.382;2023-09-18T06:58:34;95503.06;;;21.38;57.75
78149;BME280;67396;42.664;23.382;2023-09-18T07:01:00;95495.31;;;21.46;57.35
78149;BME280;67396;42.664;23.382;2023-09-18T07:03:25;95503.34;;;21.44;57.38
78149;BME280;67396;42.664;23.382;2023-09-18T07:05:51;95515.94;;;21.35;57.38
78149;BME280;67396;42.664;23.382;2023-09-18T07:08:17;95496.66;;;21.54;56.96
78149;BME280;67396;42.664;23.382;2023-09-18T07:10:45;95502.56;;;21.43;56.96
78149;BME280;67396;42.664;23.382;2023-09-18T07:13:10;95501.41;;;21.69;56.44
78149;BME280;67396;42.664;23.382;2023-09-18T07:15:37;95503.19;;;21.76;55.65
78149;BME280;67396;42.664;23.382;2023-09-18T07:18:07;95501.75;;;21.84;55.88
78149;BME280;67396;42.664;23.382;2023-09-18T07:20:32;95500.56;;;22.10;55.06
78149;BME280;67396;42.664;23.382;2023-09-18T07:22:58;95498.22;;;22.34;54.78
78149;BME280;67396;42.664;23.382;2023-09-18T07:25:24;95501.00;;;22.34;53.76
78149;BME280;67396;42.664;23.382;2023-09-18T07:27:49;95497.78;;;22.36;53.38
78149;BME280;67396;42.664;23.382;2023-09-18T07:30:15;95507.97;;;22.30;53.96
78149;BME280;67396;42.664;23.382;2023-09-18T07:32:42;95503.72;;;22.25;54.49
78149;BME280;67396;42.664;23.382;2023-09-18T07:35:08;95505.28;;;22.39;53.91
78149;BME280;67396;42.664;23.382;2023-09-18T07:37:34;95498.13;;;22.38;53.43
78149;BME280;67396;42.664;23.382;2023-09-18T07:40:02;95496.19;;;22.60;53.37
78149;BME280;67396;42.664;23.382;2023-09-18T07:42:27;95493.50;;;22.57;53.06
78149;BME280;67396;42.664;23.382;2023-09-18T07:44:53;95494.84;;;22.65;52.68
78149;BME280;67396;42.664;23.382;2023-09-18T07:47:19;95511.19;;;22.53;52.35
78149;BME280;67396;42.664;23.382;2023-09-18T07:49:45;95503.47;;;22.45;52.56
78149;BME280;67396;42.664;23.382;2023-09-18T07:52:11;95503.47;;;22.45;52.75
78149;BME280;67396;42.664;23.382;2023-09-18T07:54:36;95495.75;;;22.74;52.58
78149;BME280;67396;42.664;23.382;2023-09-18T07:57:02;95498.66;;;23.18;51.21
78149;BME280;67396;42.664;23.382;2023-09-18T07:59:27;95495.84;;;23.52;50.11
78149;BME280;67396;42.664;23.382;2023-09-18T08:01:54;95497.31;;;23.66;49.24
78149;BME280;67396;42.664;23.382;2023-09-18T08:04:20;95498.88;;;23.45;49.46
78149;BME280;67396;42.664;23.382;2023-09-18T08:06:45;95493.97;;;23.37;50.22
78149;BME280;67396;42.664;23.382;2023-09-18T08:09:11;95480.13;;;23.55;50.10
78149;BME280;67396;42.664;23.382;2023-09-18T08:11:41;95488.16;;;23.96;49.07
78149;BME280;67396;42.664;23.382;2023-09-18T08:14:08;95482.44;;;24.31;47.60
78149;BME280;67396;42.664;23.382;2023-09-18T08:16:34;95472.63;;;24.35;47.50
78149;BME280;67396;42.664;23.382;2023-09-18T08:19:02;95482.41;;;24.71;47.15
78149;BME280;67396;42.664;23.382;2023-09-18T08:21:27;95482.69;;;24.64;46.58
78149;BME280;67396;42.664;23.382;2023-09-18T08:23:55;95474.78;;;24.71;46.52
78149;BME280;67396;42.664;23.382;2023-09-18T08:26:21;95485.13;;;25.02;45.78
78149;BME280;67396;42.664;23.382;2023-09-18T08:28:47;95483.94;;;24.23;46.98
78149;BME280;67396;42.664;23.382;2023-09-18T08:31:12;95471.59;;;24.20;47.20
78149;BME280;67396;42.664;23.382;2023-09-18T08:33:38;95484.91;;;24.29;46.84
78149;BME280;67396;42.664;23.382;2023-09-18T08:36:03;95476.78;;;23.91;48.03
78149;BME280;67396;42.664;23.382;2023-09-18T08:38:29;95476.50;;;23.98;47.62
78149;BME280;67396;42.664;23.382;2023-09-18T08:40:57;95473.06;;;23.29;49.03
78149;BME280;67396;42.664;23.382;2023-09-18T08:43:23;95468.53;;;23.09;50.34
78149;BME280;67396;42.664;23.382;2023-09-18T08:45:54;95470.03;;;23.01;50.46
78149;BME280;67396;42.664;23.382;2023-09-18T08:48:21;95455.56;;;22.68;51.39
78149;BME280;67396;42.664;23.382;2023-09-18T08:50:47;95459.25;;;22.52;51.63
78149;BME280;67396;42.664;23.382;2023-09-18T08:53:13;95445.94;;;22.44;52.43
78149;BME280;67396;42.664;23.382;2023-09-18T08:55:40;95453.44;;;22.60;51.81
78149;BME280;67396;42.664;23.382;2023-09-18T08:58:06;95456.00;;;22.67;51.71
78149;BME280;67396;42.664;23.382;2023-09-18T09:00:33;95449.09;;;22.46;51.88
78149;BME280;67396;42.664;23.382;2023-09-18T09:03:01;95456.75;;;22.07;52.48
78149;BME280;67396;42.664;23.382;2023-09-18T09:05:26;95457.03;;;21.84;53.38
78149;BME280;67396;42.664;23.382;2023-09-18T09:07:52;95448.03;;;22.05;53.30
78149;BME280;67396;42.664;23.382;2023-09-18T09:10:17;95450.13;;;22.14;53.24
78149;BME280;67396;42.664;23.382;2023-09-18T09:15:16;95451.78;;;21.86;53.14
78149;BME280;67396;42.664;23.382;2023-09-18T09:17:42;95443.31;;;22.02;53.76
78149;BME280;67396;42.664;23.382;2023-09-18T09:20:10;95448.78;;;22.19;53.11
78149;BME280;67396;42.664;23.382;2023-09-18T09:22:37;95449.78;;;22.37;51.37
78149;BME280;67396;42.664;23.382;2023-09-18T09:25:04;95446.78;;;22.32;50.71
78149;BME280;67396;42.664;23.382;2023-09-18T09:27:42;95442.63;;;22.11;51.46
78149;BME280;67396;42.664;23.382;2023-09-18T09:30:08;95437.72;;;22.02;51.62
78149;BME280;67396;42.664;23.382;2023-09-18T09:32:33;95436.50;;;22.03;52.16
78149;BME280;67396;42.664;23.382;2023-09-18T09:34:59;95437.72;;;22.02;51.78
78149;BME280;67396;42.664;23.382;2023-09-18T09:37:31;95430.91;;;22.16;51.34
78149;BME280;67396;42.664;23.382;2023-09-18T09:40:03;95432.25;;;22.11;51.08
78149;BME280;67396;42.664;23.382;2023-09-18T09:42:39;95436.38;;;22.20;50.19
78149;BME280;67396;42.664;23.382;2023-09-18T09:45:11;95428.88;;;22.29;50.31
78149;BME280;67396;42.664;23.382;2023-09-18T09:47:37;95432.53;;;22.39;50.09
78149;BME280;67396;42.664;23.382;2023-09-18T09:50:21;95425.81;;;22.49;49.20
78149;BME280;67396;42.664;23.382;2023-09-18T09:52:49;95433.63;;;22.54;47.77
78149;BME280;67396;42.664;23.382;2023-09-18T09:55:24;95416.44;;;22.30;48.38
78149;BME280;67396;42.664;23.382;2023-09-18T09:57:58;95424.72;;;22.34;49.56
78149;BME280;67396;42.664;23.382;2023-09-18T10:00:33;95425.97;;;22.33;50.16
78149;BME280;67396;42.664;23.382;2023-09-18T10:03:07;95419.13;;;22.34;49.47
78149;BME280;67396;42.664;23.382;2023-09-18T10:05:39;95412.97;;;22.26;49.69
78149;BME280;67396;42.664;23.382;2023-09-18T10:08:25;95410.75;;;22.34;49.81
78149;BME280;67396;42.664;23.382;2023-09-18T10:10:53;95409.81;;;22.37;49.33
78149;BME280;67396;42.664;23.382;2023-09-18T10:13:42;95419.00;;;22.37;48.51
78149;BME280;67396;42.664;23.382;2023-09-18T10:16:12;95407.63;;;22.32;48.94
78149;BME280;67396;42.664;23.382;2023-09-18T10:18:43;95405.16;;;22.21;49.18
78149;BME280;67396;42.664;23.382;2023-09-18T10:21:18;95411.44;;;22.25;49.37
78149;BME280;67396;42.664;23.382;2023-09-18T10:23:58;95401.69;;;22.30;49.38
78149;BME280;67396;42.664;23.382;2023-09-18T10:26:25;95398.78;;;22.33;49.14
78149;BME280;67396;42.664;23.382;2023-09-18T10:28:55;95398.72;;;22.46;49.41
78149;BME280;67396;42.664;23.382;2023-09-18T10:31:28;95396.03;;;22.55;47.95
78149;BME280;67396;42.664;23.382;2023-09-18T10:33:55;95386.19;;;22.50;47.66
78149;BME280;67396;42.664;23.382;2023-09-18T10:36:22;95378.00;;;22.56;47.22
78149;BME280;67396;42.664;23.382;2023-09-18T10:38:49;95383.44;;;22.72;47.26
78149;BME280;67396;42.664;23.382;2023-09-18T10:41:19;95378.25;;;22.83;46.02
78149;BME280;67396;42.664;23.382;2023-09-18T10:44:04;95381.06;;;22.83;46.78
78149;BME280;67396;42.664;23.382;2023-09-18T10:46:30;95369.19;;;22.79;46.44
78149;BME280;67396;42.664;23.382;2023-09-18T10:48:56;95385.88;;;22.70;46.67
78149;BME280;67396;42.664;23.382;2023-09-18T10:51:24;95380.69;;;22.60;46.73
78149;BME280;67396;42.664;23.382;2023-09-18T10:53:50;95364.00;;;22.56;46.73
78149;BME280;67396;42.664;23.382;2023-09-18T10:56:19;95352.38;;;22.58;47.30
78149;BME280;67396;42.664;23.382;2023-09-18T10:58:45;95362.06;;;22.66;46.87
78149;BME280;67396;42.664;23.382;2023-09-18T11:01:15;95358.31;;;22.60;47.12
78149;BME280;67396;42.664;23.382;2023-09-18T11:06:28;95350.72;;;22.69;46.52
78149;BME280;67396;42.664;23.382;2023-09-18T11:11:30;95344.25;;;22.72;46.91
78149;BME280;67396;42.664;23.382;2023-09-18T11:18:51;95337.25;;;22.89;45.65
78149;BME280;67396;42.664;23.382;2023-09-18T11:21:27;95339.47;;;22.95;45.74
78149;BME280;67396;42.664;23.382;2023-09-18T11:24:07;95350.97;;;22.97;45.19
78149;BME280;67396;42.664;23.382;2023-09-18T11:26:40;95329.50;;;22.94;45.21
78149;BME280;67396;42.664;23.382;2023-09-18T11:29:07;95324.53;;;22.98;45.61
78149;BME280;67396;42.664;23.382;2023-09-18T11:31:54;95320.31;;;22.93;45.70
78149;BME280;67396;42.664;23.382;2023-09-18T11:34:30;95325.06;;;23.05;45.28
78149;BME280;67396;42.664;23.382;2023-09-18T11:42:20;95301.91;;;23.14;44.75
78149;BME280;67396;42.664;23.382;2023-09-18T11:44:48;95317.41;;;23.27;44.28
78149;BME280;67396;42.664;23.382;2023-09-18T11:47:19;95308.81;;;23.22;44.74
78149;BME280;67396;42.664;23.382;2023-09-18T11:49:52;95305.75;;;23.29;44.00
78149;BME280;67396;42.664;23.382;2023-09-18T11:52:25;95299.72;;;23.40;43.77
78149;BME280;67396;42.664;23.382;2023-09-18T11:54:52;95290.84;;;23.41;43.94
78149;BME280;67396;42.664;23.382;2023-09-18T11:57:18;95302.91;;;23.51;43.05
78149;BME280;67396;42.664;23.382;2023-09-18T11:59:47;95303.69;;;23.51;43.33
78149;BME280;67396;42.664;23.382;2023-09-18T12:02:14;95295.22;;;23.42;43.96
78149;BME280;67396;42.664;23.382;2023-09-18T12:04:54;95294.97;;;23.49;44.50
78149;BME280;67396;42.664;23.382;2023-09-18T12:07:20;95298.75;;;23.55;45.32
78149;BME280;67396;42.664;23.382;2023-09-18T12:09:47;95311.25;;;23.42;45.85
78149;BME280;67396;42.664;23.382;2023-09-18T12:12:14;95310.16;;;23.39;45.88
78149;BME280;67396;42.664;23.382;2023-09-18T12:14:40;95312.66;;;23.37;45.29
78149;BME280;67396;42.664;23.382;2023-09-18T12:17:14;95314.78;;;23.33;45.31
78149;BME280;67396;42.664;23.382;2023-09-18T12:19:50;95305.09;;;23.25;45.96
78149;BME280;67396;42.664;23.382;2023-09-18T12:22:28;95297.59;;;23.22;46.07
78149;BME280;67396;42.664;23.382;2023-09-18T12:25:14;95297.75;;;23.18;45.65
78149;BME280;67396;42.664;23.382;2023-09-18T12:27:43;95291.72;;;23.20;46.30
78149;BME280;67396;42.664;23.382;2023-09-18T12:30:09;95291.88;;;23.25;45.45
78149;BME280;67396;42.664;23.382;2023-09-18T12:32:39;95288.63;;;23.27;45.71
78149;BME280;67396;42.664;23.382;2023-09-18T12:35:07;95289.53;;;23.24;45.69
78149;BME280;67396;42.664;23.382;2023-09-18T12:37:35;95285.91;;;23.14;46.08
78149;BME280;67396;42.664;23.382;2023-09-18T12:40:04;95291.06;;;23.16;46.14
78149;BME280;67396;42.664;23.382;2023-09-18T12:42:36;95289.19;;;23.13;46.29
78149;BME280;67396;42.664;23.382;2023-09-18T12:45:07;95280.97;;;23.18;46.17
78149;BME280;67396;42.664;23.382;2023-09-18T12:47:33;95278.00;;;23.22;45.94
78149;BME280;67396;42.664;23.382;2023-09-18T12:50:03;95280.22;;;23.27;45.46
78149;BME280;67396;42.664;23.382;2023-09-18T12:52:30;95276.75;;;23.23;45.65
78149;BME280;67396;42.664;23.382;2023-09-18T12:54:57;95285.31;;;23.19;45.88
78149;BME280;67396;42.664;23.382;2023-09-18T12:57:25;95272.69;;;23.15;45.82
78149;BME280;67396;42.664;23.382;2023-09-18T12:59:50;95270.53;;;23.19;45.67
78149;BME280;67396;42.664;23.382;2023-09-18T13:02:18;95270.25;;;23.26;45.79
78149;BME280;67396;42.664;23.382;2023-09-18T13:04:54;95288.22;;;23.38;45.05
78149;BME280;67396;42.664;23.382;2023-09-18T13:07:21;95274.94;;;23.29;44.56
78149;BME280;67396;42.664;23.382;2023-09-18T13:10:00;95265.56;;;23.23;45.30
78149;BME280;67396;42.664;23.382;2023-09-18T13:12:51;95273.97;;;23.23;45.29
78149;BME280;67396;42.664;23.382;2023-09-18T13:15:31;95258.41;;;23.22;45.37
78149;BME280;67396;42.664;23.382;2023-09-18T13:17:59;95271.69;;;23.31;44.93
78149;BME280;67396;42.664;23.382;2023-09-18T13:20:27;95263.13;;;23.34;44.82